sensor_id;sensor_type;location;lat;lon;timestamp;P1;durP1;ratioP1;P2;durP2;ratioP2
6135;SDS011;24008;42.664;23.372;2022-11-04T00:00:30;20.53;;;12.27;;
6135;SDS011;24008;42.664;23.372;2022-11-04T00:02:57;24.07;;;13.50;;
6135;SDS011;24008;42.664;23.372;2022-11-04T00:05:24;22.17;;;13.27;;
6135;SDS011;24008;42.664;23.372;2022-11-04T00:07:50;23.63;;;13.00;;
6135;SDS011;24008;42.664;23.372;2022-11-04T00:10:35;20.30;;;12.90;;
6135;SDS011;24008;42.664;23.372;2022-11-04T00:13:20;23.10;;;13.30;;
6135;SDS011;24008;42.664;23.372;2022-11-04T00:15:47;21.03;;;13.13;;
6135;SDS011;24008;42.664;23.372;2022-11-04T00:18:31;23.80;;;13.83;;
6135;SDS011;24008;42.664;23.372;2022-11-04T00:21:00;25.70;;;14.17;;
6135;SDS011;24008;42.664;23.372;2022-11-04T00:23:44;23.23;;;13.03;;
6135;SDS011;24008;42.664;23.372;2022-11-04T00:26:28;25.07;;;14.20;;
6135;SDS011;24008;42.664;23.372;2022-11-04T00:29:14;26.33;;;14.23;;
6135;SDS011;24008;42.664;23.372;2022-11-04T00:31:41;26.70;;;13.53;;
6135;SDS011;24008;42.664;23.372;2022-11-04T00:34:25;38.37;;;14.60;;
6135;SDS011;24008;42.664;23.372;2022-11-04T00:36:52;28.40;;;13.97;;
6135;SDS011;24008;42.664;23.372;2022-11-04T00:39:18;27.07;;;14.00;;
6135;SDS011;24008;42.664;23.372;2022-11-04T00:41:45;23.87;;;13.50;;
6135;SDS011;24008;42.664;23.372;2022-11-04T00:44:13;25.83;;;14.13;;
6135;SDS011;24008;42.664;23.372;2022-11-04T00:46:40;25.03;;;13.53;;
6135;SDS011;24008;42.664;23.372;2022-11-04T00:49:07;24.80;;;13.23;;
6135;SDS011;24008;42.664;23.372;2022-11-04T00:51:33;23.37;;;12.37;;
6135;SDS011;24008;42.664;23.372;2022-11-04T00:54:00;23.80;;;13.90;;
6135;SDS011;24008;42.664;23.372;2022-11-04T00:56:27;28.03;;;14.30;;
6135;SDS011;24008;42.664;23.372;2022-11-04T00:58:53;25.30;;;13.70;;
6135;SDS011;24008;42.664;23.372;2022-11-04T01:01:21;23.13;;;14.37;;
6135;SDS011;24008;42.664;23.372;2022-11-04T01:03:49;23.90;;;12.50;;
6135;SDS011;24008;42.664;23.372;2022-11-04T01:06:17;24.43;;;13.83;;
6135;SDS011;24008;42.664;23.372;2022-11-04T01:08:45;23.13;;;13.17;;
6135;SDS011;24008;42.664;23.372;2022-11-04T01:11:12;23.97;;;13.47;;
6135;SDS011;24008;42.664;23.372;2022-11-04T01:13:40;23.47;;;13.83;;
6135;SDS011;24008;42.664;23.372;2022-11-04T01:16:08;26.00;;;13.33;;
6135;SDS011;24008;42.664;23.372;2022-11-04T01:18:38;21.67;;;14.00;;
6135;SDS011;24008;42.664;23.372;2022-11-04T01:21:06;21.70;;;13.87;;
6135;SDS011;24008;42.664;23.372;2022-11-04T01:23:34;26.07;;;13.67;;
6135;SDS011;24008;42.664;23.372;2022-11-04T01:26:03;27.47;;;14.37;;
6135;SDS011;24008;42.664;23.372;2022-11-04T01:28:30;26.97;;;14.00;;
6135;SDS011;24008;42.664;23.372;2022-11-04T01:30:57;23.77;;;14.07;;
6135;SDS011;24008;42.664;23.372;2022-11-04T01:33:23;29.43;;;14.67;;
6135;SDS011;24008;42.664;23.372;2022-11-04T01:35:52;27.13;;;14.17;;
6135;SDS011;24008;42.664;23.372;2022-11-04T01:38:18;21.57;;;13.63;;
6135;SDS011;24008;42.664;23.372;2022-11-04T01:40:45;22.53;;;14.63;;
6135;SDS011;24008;42.664;23.372;2022-11-04T01:43:12;26.90;;;15.37;;
6135;SDS011;24008;42.664;23.372;2022-11-04T01:45:41;26.17;;;15.03;;
6135;SDS011;24008;42.664;23.372;2022-11-04T01:48:11;26.27;;;15.60;;
6135;SDS011;24008;42.664;23.372;2022-11-04T01:50:43;23.03;;;14.07;;
6135;SDS011;24008;42.664;23.372;2022-11-04T01:53:11;26.57;;;13.80;;
6135;SDS011;24008;42.664;23.372;2022-11-04T01:55:42;23.87;;;14.27;;
6135;SDS011;24008;42.664;23.372;2022-11-04T01:58:15;30.13;;;16.70;;
6135;SDS011;24008;42.664;23.372;2022-11-04T02:00:45;23.10;;;14.97;;
6135;SDS011;24008;42.664;23.372;2022-11-04T02:03:13;22.97;;;13.57;;
6135;SDS011;24008;42.664;23.372;2022-11-04T02:05:43;31.67;;;15.07;;
6135;SDS011;24008;42.664;23.372;2022-11-04T02:08:13;32.57;;;15.93;;
6135;SDS011;24008;42.664;23.372;2022-11-04T02:10:46;27.67;;;14.60;;
6135;SDS011;24008;42.664;23.372;2022-11-04T02:13:15;26.67;;;14.00;;
6135;SDS011;24008;42.664;23.372;2022-11-04T02:15:43;26.87;;;14.90;;
6135;SDS011;24008;42.664;23.372;2022-11-04T02:21:29;26.10;;;15.10;;
6135;SDS011;24008;42.664;23.372;2022-11-04T02:27:27;27.53;;;15.77;;
6135;SDS011;24008;42.664;23.372;2022-11-04T02:30:04;27.27;;;16.90;;
6135;SDS011;24008;42.664;23.372;2022-11-04T02:32:36;24.10;;;15.40;;
6135;SDS011;24008;42.664;23.372;2022-11-04T02:35:21;30.13;;;16.27;;
6135;SDS011;24008;42.664;23.372;2022-11-04T02:37:53;30.87;;;19.07;;
6135;SDS011;24008;42.664;23.372;2022-11-04T02:40:27;29.37;;;18.43;;
6135;SDS011;24008;42.664;23.372;2022-11-04T02:43:02;30.10;;;17.93;;
6135;SDS011;24008;42.664;23.372;2022-11-04T02:45:39;27.97;;;16.50;;
6135;SDS011;24008;42.664;23.372;2022-11-04T02:48:09;27.50;;;15.77;;
6135;SDS011;24008;42.664;23.372;2022-11-04T02:50:43;36.13;;;18.70;;
6135;SDS011;24008;42.664;23.372;2022-11-04T02:53:17;27.17;;;17.30;;
6135;SDS011;24008;42.664;23.372;2022-11-04T02:55:49;28.07;;;16.27;;
6135;SDS011;24008;42.664;23.372;2022-11-04T02:58:20;28.27;;;17.00;;
6135;SDS011;24008;42.664;23.372;2022-11-04T03:00:54;30.40;;;20.33;;
6135;SDS011;24008;42.664;23.372;2022-11-04T03:03:23;26.90;;;17.57;;
6135;SDS011;24008;42.664;23.372;2022-11-04T03:05:53;29.23;;;17.47;;
6135;SDS011;24008;42.664;23.372;2022-11-04T03:08:23;33.53;;;18.77;;
6135;SDS011;24008;42.664;23.372;2022-11-04T03:10:56;30.27;;;18.77;;
6135;SDS011;24008;42.664;23.372;2022-11-04T03:13:30;31.03;;;16.47;;
6135;SDS011;24008;42.664;23.372;2022-11-04T03:16:04;33.77;;;17.60;;
6135;SDS011;24008;42.664;23.372;2022-11-04T03:18:37;29.40;;;16.30;;
6135;SDS011;24008;42.664;23.372;2022-11-04T03:21:11;27.53;;;16.60;;
6135;SDS011;24008;42.664;23.372;2022-11-04T03:23:40;27.70;;;16.63;;
6135;SDS011;24008;42.664;23.372;2022-11-04T03:26:09;28.17;;;16.90;;
6135;SDS011;24008;42.664;23.372;2022-11-04T03:28:41;31.63;;;16.00;;
6135;SDS011;24008;42.664;23.372;2022-11-04T03:31:14;28.80;;;17.60;;
6135;SDS011;24008;42.664;23.372;2022-11-04T03:33:48;29.53;;;16.80;;
6135;SDS011;24008;42.664;23.372;2022-11-04T03:36:16;32.33;;;16.90;;
6135;SDS011;24008;42.664;23.372;2022-11-04T03:38:45;31.43;;;17.40;;
6135;SDS011;24008;42.664;23.372;2022-11-04T03:41:13;26.13;;;16.17;;
6135;SDS011;24008;42.664;23.372;2022-11-04T03:43:43;28.17;;;17.23;;
6135;SDS011;24008;42.664;23.372;2022-11-04T03:46:10;30.10;;;17.77;;
6135;SDS011;24008;42.664;23.372;2022-11-04T03:48:39;27.13;;;16.93;;
6135;SDS011;24008;42.664;23.372;2022-11-04T03:51:09;26.73;;;17.43;;
6135;SDS011;24008;42.664;23.372;2022-11-04T03:53:35;29.30;;;17.30;;
6135;SDS011;24008;42.664;23.372;2022-11-04T03:56:10;29.47;;;16.90;;
6135;SDS011;24008;42.664;23.372;2022-11-04T03:58:50;27.73;;;17.27;;
6135;SDS011;24008;42.664;23.372;2022-11-04T04:01:31;28.40;;;17.23;;
6135;SDS011;24008;42.664;23.372;2022-11-04T04:04:07;32.60;;;16.83;;
6135;SDS011;24008;42.664;23.372;2022-11-04T04:06:41;34.77;;;18.37;;
6135;SDS011;24008;42.664;23.372;2022-11-04T04:09:11;33.67;;;17.77;;
6135;SDS011;24008;42.664;23.372;2022-11-04T04:11:44;29.93;;;17.47;;
6135;SDS011;24008;42.664;23.372;2022-11-04T04:14:21;32.37;;;17.17;;
6135;SDS011;24008;42.664;23.372;2022-11-04T04:17:06;37.30;;;23.03;;
6135;SDS011;24008;42.664;23.372;2022-11-04T04:19:38;47.00;;;26.53;;
6135;SDS011;24008;42.664;23.372;2022-11-04T04:22:11;38.93;;;23.83;;
6135;SDS011;24008;42.664;23.372;2022-11-04T04:24:43;44.87;;;24.23;;
6135;SDS011;24008;42.664;23.372;2022-11-04T04:27:31;42.93;;;25.53;;
6135;SDS011;24008;42.664;23.372;2022-11-04T04:30:00;36.50;;;21.70;;
6135;SDS011;24008;42.664;23.372;2022-11-04T04:32:32;39.50;;;24.20;;
6135;SDS011;24008;42.664;23.372;2022-11-04T04:35:02;41.83;;;25.63;;
6135;SDS011;24008;42.664;23.372;2022-11-04T04:37:46;35.37;;;20.67;;
6135;SDS011;24008;42.664;23.372;2022-11-04T04:40:14;30.40;;;18.77;;
6135;SDS011;24008;42.664;23.372;2022-11-04T04:43:03;47.63;;;23.47;;
6135;SDS011;24008;42.664;23.372;2022-11-04T04:45:48;33.10;;;20.90;;
6135;SDS011;24008;42.664;23.372;2022-11-04T04:48:17;38.40;;;22.03;;
6135;SDS011;24008;42.664;23.372;2022-11-04T04:50:47;38.30;;;24.17;;
6135;SDS011;24008;42.664;23.372;2022-11-04T04:53:20;38.93;;;22.77;;
6135;SDS011;24008;42.664;23.372;2022-11-04T04:55:47;40.43;;;24.43;;
6135;SDS011;24008;42.664;23.372;2022-11-04T04:58:14;35.20;;;20.40;;
6135;SDS011;24008;42.664;23.372;2022-11-04T05:00:41;30.90;;;19.23;;
6135;SDS011;24008;42.664;23.372;2022-11-04T05:03:07;42.07;;;22.73;;
6135;SDS011;24008;42.664;23.372;2022-11-04T05:05:34;35.00;;;20.90;;
6135;SDS011;24008;42.664;23.372;2022-11-04T05:08:06;34.53;;;20.93;;
6135;SDS011;24008;42.664;23.372;2022-11-04T05:10:33;33.70;;;20.70;;
6135;SDS011;24008;42.664;23.372;2022-11-04T05:13:00;34.87;;;22.03;;
6135;SDS011;24008;42.664;23.372;2022-11-04T05:15:44;39.70;;;20.23;;
6135;SDS011;24008;42.664;23.372;2022-11-04T05:18:11;34.33;;;19.97;;
6135;SDS011;24008;42.664;23.372;2022-11-04T05:20:37;31.60;;;19.63;;
6135;SDS011;24008;42.664;23.372;2022-11-04T05:23:06;33.80;;;19.60;;
6135;SDS011;24008;42.664;23.372;2022-11-04T05:25:36;37.03;;;20.60;;
6135;SDS011;24008;42.664;23.372;2022-11-04T05:28:03;33.00;;;21.60;;
6135;SDS011;24008;42.664;23.372;2022-11-04T05:30:31;39.50;;;21.60;;
6135;SDS011;24008;42.664;23.372;2022-11-04T05:32:58;41.10;;;23.30;;
6135;SDS011;24008;42.664;23.372;2022-11-04T05:35:25;35.83;;;22.57;;
6135;SDS011;24008;42.664;23.372;2022-11-04T05:37:51;52.97;;;21.60;;
6135;SDS011;24008;42.664;23.372;2022-11-04T05:40:21;47.87;;;25.50;;
6135;SDS011;24008;42.664;23.372;2022-11-04T05:42:49;39.30;;;22.43;;
6135;SDS011;24008;42.664;23.372;2022-11-04T05:45:15;35.53;;;20.87;;
6135;SDS011;24008;42.664;23.372;2022-11-04T05:47:42;35.03;;;21.37;;
6135;SDS011;24008;42.664;23.372;2022-11-04T05:50:09;38.27;;;21.63;;
6135;SDS011;24008;42.664;23.372;2022-11-04T05:52:36;45.77;;;22.13;;
6135;SDS011;24008;42.664;23.372;2022-11-04T05:55:03;41.10;;;21.67;;
6135;SDS011;24008;42.664;23.372;2022-11-04T05:57:31;41.57;;;20.20;;
6135;SDS011;24008;42.664;23.372;2022-11-04T05:59:59;38.17;;;21.13;;
6135;SDS011;24008;42.664;23.372;2022-11-04T06:02:26;33.87;;;19.57;;
6135;SDS011;24008;42.664;23.372;2022-11-04T06:04:52;38.40;;;20.10;;
6135;SDS011;24008;42.664;23.372;2022-11-04T06:07:19;38.97;;;21.77;;
6135;SDS011;24008;42.664;23.372;2022-11-04T06:09:46;34.40;;;21.37;;
6135;SDS011;24008;42.664;23.372;2022-11-04T06:12:13;37.93;;;21.97;;
6135;SDS011;24008;42.664;23.372;2022-11-04T06:14:42;38.47;;;22.27;;
6135;SDS011;24008;42.664;23.372;2022-11-04T06:17:10;43.27;;;22.50;;
6135;SDS011;24008;42.664;23.372;2022-11-04T06:19:40;38.50;;;21.13;;
6135;SDS011;24008;42.664;23.372;2022-11-04T06:22:07;41.20;;;22.57;;
6135;SDS011;24008;42.664;23.372;2022-11-04T06:24:34;39.57;;;21.10;;
6135;SDS011;24008;42.664;23.372;2022-11-04T06:27:01;35.90;;;20.03;;
6135;SDS011;24008;42.664;23.372;2022-11-04T06:29:28;33.73;;;21.10;;
6135;SDS011;24008;42.664;23.372;2022-11-04T06:31:56;42.27;;;21.03;;
6135;SDS011;24008;42.664;23.372;2022-11-04T06:34:23;36.70;;;22.57;;
6135;SDS011;24008;42.664;23.372;2022-11-04T06:36:50;40.53;;;22.07;;
6135;SDS011;24008;42.664;23.372;2022-11-04T06:39:17;35.67;;;20.97;;
6135;SDS011;24008;42.664;23.372;2022-11-04T06:41:44;38.60;;;22.83;;
6135;SDS011;24008;42.664;23.372;2022-11-04T06:44:11;38.00;;;22.83;;
6135;SDS011;24008;42.664;23.372;2022-11-04T06:46:38;34.57;;;22.27;;
6135;SDS011;24008;42.664;23.372;2022-11-04T06:49:09;37.23;;;22.90;;
6135;SDS011;24008;42.664;23.372;2022-11-04T06:51:37;38.00;;;23.47;;
6135;SDS011;24008;42.664;23.372;2022-11-04T06:54:04;37.57;;;23.47;;
6135;SDS011;24008;42.664;23.372;2022-11-04T06:56:31;44.77;;;24.40;;
6135;SDS011;24008;42.664;23.372;2022-11-04T06:58:58;42.07;;;24.10;;
6135;SDS011;24008;42.664;23.372;2022-11-04T07:01:25;44.23;;;25.37;;
6135;SDS011;24008;42.664;23.372;2022-11-04T07:03:53;39.07;;;25.97;;
6135;SDS011;24008;42.664;23.372;2022-11-04T07:06:23;40.67;;;24.97;;
6135;SDS011;24008;42.664;23.372;2022-11-04T07:08:51;45.90;;;24.97;;
6135;SDS011;24008;42.664;23.372;2022-11-04T07:11:19;41.93;;;24.70;;
6135;SDS011;24008;42.664;23.372;2022-11-04T07:13:47;41.13;;;24.27;;
6135;SDS011;24008;42.664;23.372;2022-11-04T07:16:14;43.67;;;24.83;;
6135;SDS011;24008;42.664;23.372;2022-11-04T07:18:42;39.53;;;24.83;;
6135;SDS011;24008;42.664;23.372;2022-11-04T07:21:08;42.40;;;26.20;;
6135;SDS011;24008;42.664;23.372;2022-11-04T07:23:37;40.87;;;26.37;;
6135;SDS011;24008;42.664;23.372;2022-11-04T07:26:24;41.80;;;26.47;;
6135;SDS011;24008;42.664;23.372;2022-11-04T07:28:51;40.97;;;25.43;;
6135;SDS011;24008;42.664;23.372;2022-11-04T07:31:18;39.73;;;24.97;;
6135;SDS011;24008;42.664;23.372;2022-11-04T07:33:46;40.50;;;25.43;;
6135;SDS011;24008;42.664;23.372;2022-11-04T07:36:15;42.30;;;26.53;;
6135;SDS011;24008;42.664;23.372;2022-11-04T07:38:44;44.87;;;25.93;;
6135;SDS011;24008;42.664;23.372;2022-11-04T07:41:11;39.40;;;25.20;;
6135;SDS011;24008;42.664;23.372;2022-11-04T07:43:38;39.17;;;25.33;;
6135;SDS011;24008;42.664;23.372;2022-11-04T07:46:05;39.13;;;25.40;;
6135;SDS011;24008;42.664;23.372;2022-11-04T07:48:34;36.92;;;24.42;;
6135;SDS011;24008;42.664;23.372;2022-11-04T07:51:02;37.55;;;24.40;;
6135;SDS011;24008;42.664;23.372;2022-11-04T07:53:30;39.33;;;25.33;;
6135;SDS011;24008;42.664;23.372;2022-11-04T07:56:01;38.05;;;25.50;;
6135;SDS011;24008;42.664;23.372;2022-11-04T07:58:29;36.70;;;23.35;;
6135;SDS011;24008;42.664;23.372;2022-11-04T08:00:59;36.90;;;23.83;;
6135;SDS011;24008;42.664;23.372;2022-11-04T08:03:26;36.22;;;24.75;;
6135;SDS011;24008;42.664;23.372;2022-11-04T08:05:55;34.80;;;24.13;;
6135;SDS011;24008;42.664;23.372;2022-11-04T08:08:22;33.85;;;23.60;;
6135;SDS011;24008;42.664;23.372;2022-11-04T08:10:52;36.88;;;24.55;;
6135;SDS011;24008;42.664;23.372;2022-11-04T08:13:22;42.88;;;24.95;;
6135;SDS011;24008;42.664;23.372;2022-11-04T08:15:52;37.50;;;24.13;;
6135;SDS011;24008;42.664;23.372;2022-11-04T08:18:19;38.47;;;24.73;;
6135;SDS011;24008;42.664;23.372;2022-11-04T08:20:46;37.35;;;24.95;;
6135;SDS011;24008;42.664;23.372;2022-11-04T08:23:14;42.08;;;24.83;;
6135;SDS011;24008;42.664;23.372;2022-11-04T08:25:42;41.35;;;26.23;;
6135;SDS011;24008;42.664;23.372;2022-11-04T08:28:09;39.70;;;23.27;;
6135;SDS011;24008;42.664;23.372;2022-11-04T08:30:42;36.97;;;25.25;;
6135;SDS011;24008;42.664;23.372;2022-11-04T08:33:17;37.00;;;23.90;;
6135;SDS011;24008;42.664;23.372;2022-11-04T08:35:44;37.78;;;25.30;;
6135;SDS011;24008;42.664;23.372;2022-11-04T08:38:10;34.97;;;23.98;;
6135;SDS011;24008;42.664;23.372;2022-11-04T08:40:37;39.20;;;24.58;;
6135;SDS011;24008;42.664;23.372;2022-11-04T08:43:04;36.88;;;24.17;;
6135;SDS011;24008;42.664;23.372;2022-11-04T08:45:32;41.17;;;24.48;;
6135;SDS011;24008;42.664;23.372;2022-11-04T08:48:00;36.70;;;23.98;;
6135;SDS011;24008;42.664;23.372;2022-11-04T08:50:28;35.40;;;24.38;;
6135;SDS011;24008;42.664;23.372;2022-11-04T08:52:55;32.38;;;22.60;;
6135;SDS011;24008;42.664;23.372;2022-11-04T08:55:22;39.42;;;23.02;;
6135;SDS011;24008;42.664;23.372;2022-11-04T08:57:49;36.50;;;23.40;;
6135;SDS011;24008;42.664;23.372;2022-11-04T09:00:16;37.58;;;22.58;;
6135;SDS011;24008;42.664;23.372;2022-11-04T09:02:43;37.92;;;23.30;;
6135;SDS011;24008;42.664;23.372;2022-11-04T09:05:11;37.72;;;23.67;;
6135;SDS011;24008;42.664;23.372;2022-11-04T09:07:39;35.28;;;24.55;;
6135;SDS011;24008;42.664;23.372;2022-11-04T09:10:07;32.17;;;22.88;;
6135;SDS011;24008;42.664;23.372;2022-11-04T09:12:34;37.30;;;23.15;;
6135;SDS011;24008;42.664;23.372;2022-11-04T09:15:01;36.08;;;23.00;;
6135;SDS011;24008;42.664;23.372;2022-11-04T09:17:29;35.33;;;23.27;;
6135;SDS011;24008;42.664;23.372;2022-11-04T09:19:56;36.42;;;24.30;;
6135;SDS011;24008;42.664;23.372;2022-11-04T09:22:24;37.47;;;24.42;;
6135;SDS011;24008;42.664;23.372;2022-11-04T09:24:52;35.58;;;23.13;;
6135;SDS011;24008;42.664;23.372;2022-11-04T09:27:18;37.63;;;23.27;;
6135;SDS011;24008;42.664;23.372;2022-11-04T09:29:45;37.40;;;25.20;;
6135;SDS011;24008;42.664;23.372;2022-11-04T09:32:12;39.08;;;24.02;;
6135;SDS011;24008;42.664;23.372;2022-11-04T09:34:39;37.63;;;23.30;;
6135;SDS011;24008;42.664;23.372;2022-11-04T09:37:05;36.88;;;23.05;;
6135;SDS011;24008;42.664;23.372;2022-11-04T09:39:33;31.95;;;21.98;;
6135;SDS011;24008;42.664;23.372;2022-11-04T09:42:12;39.95;;;22.83;;
6135;SDS011;24008;42.664;23.372;2022-11-04T09:44:55;36.40;;;23.17;;
6135;SDS011;24008;42.664;23.372;2022-11-04T09:47:26;39.95;;;23.23;;
6135;SDS011;24008;42.664;23.372;2022-11-04T09:49:56;32.40;;;21.40;;
6135;SDS011;24008;42.664;23.372;2022-11-04T09:52:27;41.53;;;22.55;;
6135;SDS011;24008;42.664;23.372;2022-11-04T09:54:59;48.40;;;23.45;;
6135;SDS011;24008;42.664;23.372;2022-11-04T09:57:30;42.10;;;22.80;;
6135;SDS011;24008;42.664;23.372;2022-11-04T09:59:58;41.40;;;22.73;;
6135;SDS011;24008;42.664;23.372;2022-11-04T10:05:21;35.38;;;22.13;;
6135;SDS011;24008;42.664;23.372;2022-11-04T10:08:05;36.65;;;22.33;;
6135;SDS011;24008;42.664;23.372;2022-11-04T10:10:49;36.72;;;22.50;;
6135;SDS011;24008;42.664;23.372;2022-11-04T10:13:24;33.17;;;22.35;;
6135;SDS011;24008;42.664;23.372;2022-11-04T10:18:53;32.40;;;19.83;;
6135;SDS011;24008;42.664;23.372;2022-11-04T10:21:36;33.40;;;20.83;;
6135;SDS011;24008;42.664;23.372;2022-11-04T10:24:16;32.97;;;20.40;;
6135;SDS011;24008;42.664;23.372;2022-11-04T10:26:46;32.70;;;20.30;;
6135;SDS011;24008;42.664;23.372;2022-11-04T10:29:20;31.27;;;19.48;;
6135;SDS011;24008;42.664;23.372;2022-11-04T10:31:54;45.50;;;21.10;;
6135;SDS011;24008;42.664;23.372;2022-11-04T10:34:31;33.33;;;20.87;;
6135;SDS011;24008;42.664;23.372;2022-11-04T10:37:03;35.87;;;21.97;;
6135;SDS011;24008;42.664;23.372;2022-11-04T10:39:35;36.97;;;22.23;;
6135;SDS011;24008;42.664;23.372;2022-11-04T10:42:09;34.93;;;20.40;;
6135;SDS011;24008;42.664;23.372;2022-11-04T10:44:38;37.37;;;21.07;;
6135;SDS011;24008;42.664;23.372;2022-11-04T10:47:09;36.50;;;21.23;;
6135;SDS011;24008;42.664;23.372;2022-11-04T10:49:48;35.10;;;20.93;;
6135;SDS011;24008;42.664;23.372;2022-11-04T10:52:27;31.37;;;19.20;;
6135;SDS011;24008;42.664;23.372;2022-11-04T10:54:54;30.10;;;19.83;;
6135;SDS011;24008;42.664;23.372;2022-11-04T10:57:22;31.43;;;19.77;;
6135;SDS011;24008;42.664;23.372;2022-11-04T10:59:51;30.63;;;18.70;;
6135;SDS011;24008;42.664;23.372;2022-11-04T11:05:12;35.00;;;19.83;;
6135;SDS011;24008;42.664;23.372;2022-11-04T11:07:46;37.83;;;19.93;;
6135;SDS011;24008;42.664;23.372;2022-11-04T11:10:15;31.13;;;19.30;;
6135;SDS011;24008;42.664;23.372;2022-11-04T11:12:44;28.80;;;16.87;;
6135;SDS011;24008;42.664;23.372;2022-11-04T11:15:18;29.73;;;18.13;;
6135;SDS011;24008;42.664;23.372;2022-11-04T11:17:58;30.37;;;17.83;;
6135;SDS011;24008;42.664;23.372;2022-11-04T11:20:37;32.80;;;18.50;;
6135;SDS011;24008;42.664;23.372;2022-11-04T11:23:05;29.63;;;17.77;;
6135;SDS011;24008;42.664;23.372;2022-11-04T11:25:59;29.60;;;16.57;;
6135;SDS011;24008;42.664;23.372;2022-11-04T11:28:28;29.87;;;17.53;;
6135;SDS011;24008;42.664;23.372;2022-11-04T11:31:02;27.00;;;15.63;;
6135;SDS011;24008;42.664;23.372;2022-11-04T11:33:33;35.33;;;16.27;;
6135;SDS011;24008;42.664;23.372;2022-11-04T11:36:03;29.67;;;17.57;;
6135;SDS011;24008;42.664;23.372;2022-11-04T11:38:37;30.20;;;17.73;;
6135;SDS011;24008;42.664;23.372;2022-11-04T11:41:16;27.83;;;16.17;;
6135;SDS011;24008;42.664;23.372;2022-11-04T11:43:50;27.43;;;16.17;;
6135;SDS011;24008;42.664;23.372;2022-11-04T11:46:20;27.93;;;16.03;;
6135;SDS011;24008;42.664;23.372;2022-11-04T11:48:49;27.67;;;15.70;;
6135;SDS011;24008;42.664;23.372;2022-11-04T11:51:22;23.83;;;15.27;;
6135;SDS011;24008;42.664;23.372;2022-11-04T11:53:57;23.37;;;14.50;;
6135;SDS011;24008;42.664;23.372;2022-11-04T11:56:34;25.03;;;15.23;;
6135;SDS011;24008;42.664;23.372;2022-11-04T11:59:12;29.83;;;15.37;;
6135;SDS011;24008;42.664;23.372;2022-11-04T12:01:46;26.20;;;15.37;;
6135;SDS011;24008;42.664;23.372;2022-11-04T12:04:16;25.00;;;14.47;;
6135;SDS011;24008;42.664;23.372;2022-11-04T12:06:46;25.13;;;14.67;;
6135;SDS011;24008;42.664;23.372;2022-11-04T12:09:45;27.67;;;14.97;;
6135;SDS011;24008;42.664;23.372;2022-11-04T12:12:18;24.67;;;15.13;;
6135;SDS011;24008;42.664;23.372;2022-11-04T12:15:00;23.27;;;14.47;;
6135;SDS011;24008;42.664;23.372;2022-11-04T12:17:41;25.97;;;15.67;;
6135;SDS011;24008;42.664;23.372;2022-11-04T12:20:24;28.03;;;14.97;;
6135;SDS011;24008;42.664;23.372;2022-11-04T12:23:00;26.93;;;14.57;;
6135;SDS011;24008;42.664;23.372;2022-11-04T12:25:34;31.30;;;15.70;;
6135;SDS011;24008;42.664;23.372;2022-11-04T12:28:14;28.33;;;15.23;;
6135;SDS011;24008;42.664;23.372;2022-11-04T12:30:51;27.37;;;14.43;;
6135;SDS011;24008;42.664;23.372;2022-11-04T12:33:31;26.17;;;14.47;;
6135;SDS011;24008;42.664;23.372;2022-11-04T12:36:11;33.83;;;15.37;;
6135;SDS011;24008;42.664;23.372;2022-11-04T12:39:03;28.80;;;14.60;;
6135;SDS011;24008;42.664;23.372;2022-11-04T12:41:45;26.67;;;14.67;;
6135;SDS011;24008;42.664;23.372;2022-11-04T12:44:26;33.63;;;16.07;;
6135;SDS011;24008;42.664;23.372;2022-11-04T12:47:02;31.93;;;15.47;;
6135;SDS011;24008;42.664;23.372;2022-11-04T12:49:40;28.67;;;14.40;;
6135;SDS011;24008;42.664;23.372;2022-11-04T12:52:18;27.27;;;15.10;;
6135;SDS011;24008;42.664;23.372;2022-11-04T12:54:59;29.83;;;14.77;;
6135;SDS011;24008;42.664;23.372;2022-11-04T12:57:32;27.97;;;15.17;;
6135;SDS011;24008;42.664;23.372;2022-11-04T13:00:08;24.63;;;14.93;;
6135;SDS011;24008;42.664;23.372;2022-11-04T13:02:41;24.33;;;14.70;;
6135;SDS011;24008;42.664;23.372;2022-11-04T13:05:22;23.67;;;14.23;;
6135;SDS011;24008;42.664;23.372;2022-11-04T13:07:56;29.13;;;14.67;;
6135;SDS011;24008;42.664;23.372;2022-11-04T13:10:33;30.17;;;15.47;;
6135;SDS011;24008;42.664;23.372;2022-11-04T13:13:05;30.73;;;14.53;;
6135;SDS011;24008;42.664;23.372;2022-11-04T13:15:36;28.43;;;15.57;;
6135;SDS011;24008;42.664;23.372;2022-11-04T13:18:11;31.93;;;15.93;;
6135;SDS011;24008;42.664;23.372;2022-11-04T13:20:44;26.97;;;15.13;;
6135;SDS011;24008;42.664;23.372;2022-11-04T13:23:18;29.20;;;15.63;;
6135;SDS011;24008;42.664;23.372;2022-11-04T13:25:48;30.20;;;15.67;;
6135;SDS011;24008;42.664;23.372;2022-11-04T13:28:18;28.10;;;15.10;;
6135;SDS011;24008;42.664;23.372;2022-11-04T13:30:49;27.10;;;15.70;;
6135;SDS011;24008;42.664;23.372;2022-11-04T13:33:28;26.07;;;15.97;;
6135;SDS011;24008;42.664;23.372;2022-11-04T13:36:05;29.90;;;14.63;;
6135;SDS011;24008;42.664;23.372;2022-11-04T13:38:41;33.43;;;14.93;;
6135;SDS011;24008;42.664;23.372;2022-11-04T13:41:36;27.93;;;15.30;;
6135;SDS011;24008;42.664;23.372;2022-11-04T13:44:34;26.87;;;15.33;;
6135;SDS011;24008;42.664;23.372;2022-11-04T13:47:04;29.97;;;15.47;;
6135;SDS011;24008;42.664;23.372;2022-11-04T13:49:40;29.87;;;15.47;;
6135;SDS011;24008;42.664;23.372;2022-11-04T13:52:08;29.73;;;14.70;;
6135;SDS011;24008;42.664;23.372;2022-11-04T13:54:37;27.40;;;15.63;;
6135;SDS011;24008;42.664;23.372;2022-11-04T13:57:08;32.50;;;14.77;;
6135;SDS011;24008;42.664;23.372;2022-11-04T13:59:38;32.70;;;16.10;;
6135;SDS011;24008;42.664;23.372;2022-11-04T14:02:22;31.50;;;14.73;;
6135;SDS011;24008;42.664;23.372;2022-11-04T14:08:11;24.97;;;16.03;;
6135;SDS011;24008;42.664;23.372;2022-11-04T14:10:44;25.07;;;14.80;;
6135;SDS011;24008;42.664;23.372;2022-11-04T14:22:44;31.43;;;16.53;;
6135;SDS011;24008;42.664;23.372;2022-11-04T14:25:26;34.70;;;15.17;;
6135;SDS011;24008;42.664;23.372;2022-11-04T14:27:59;27.93;;;15.43;;
6135;SDS011;24008;42.664;23.372;2022-11-04T14:30:27;24.10;;;14.77;;
6135;SDS011;24008;42.664;23.372;2022-11-04T14:32:57;32.50;;;14.83;;
6135;SDS011;24008;42.664;23.372;2022-11-04T14:35:28;31.10;;;15.23;;
6135;SDS011;24008;42.664;23.372;2022-11-04T14:37:57;31.53;;;15.83;;
6135;SDS011;24008;42.664;23.372;2022-11-04T14:40:45;31.10;;;15.30;;
6135;SDS011;24008;42.664;23.372;2022-11-04T14:43:18;36.00;;;14.67;;
6135;SDS011;24008;42.664;23.372;2022-11-04T14:45:55;31.57;;;14.80;;
6135;SDS011;24008;42.664;23.372;2022-11-04T14:48:24;34.20;;;17.13;;
6135;SDS011;24008;42.664;23.372;2022-11-04T14:50:52;35.10;;;17.30;;
6135;SDS011;24008;42.664;23.372;2022-11-04T14:53:21;33.73;;;16.17;;
6135;SDS011;24008;42.664;23.372;2022-11-04T14:56:02;35.03;;;16.83;;
6135;SDS011;24008;42.664;23.372;2022-11-04T14:58:30;34.27;;;16.30;;
6135;SDS011;24008;42.664;23.372;2022-11-04T15:00:57;27.37;;;16.43;;
6135;SDS011;24008;42.664;23.372;2022-11-04T15:03:26;26.60;;;15.23;;
6135;SDS011;24008;42.664;23.372;2022-11-04T15:05:59;27.97;;;15.53;;
6135;SDS011;24008;42.664;23.372;2022-11-04T15:08:32;35.50;;;15.33;;
6135;SDS011;24008;42.664;23.372;2022-11-04T15:11:01;28.00;;;15.80;;
6135;SDS011;24008;42.664;23.372;2022-11-04T15:13:33;36.23;;;17.07;;